sensor_id;sensor_type;location;lat;lon;timestamp;pressure;altitude;pressure_sealevel;temperature;humidity
65534;BME280;53640;55.838;37.184;2023-04-01T00:00:29;97701.22;;;1.16;60.10
65534;BME280;53640;55.838;37.184;2023-04-01T00:02:58;97605.22;;;0.55;60.06
65534;BME280;53640;55.838;37.184;2023-04-01T00:05:26;97679.44;;;0.99;60.29
65534;BME280;53640;55.838;37.184;2023-04-01T00:07:53;97701.00;;;1.11;60.04
65534;BME280;53640;55.838;37.184;2023-04-01T00:10:20;97712.72;;;1.17;60.35
65534;BME280;53640;55.838;37.184;2023-04-01T00:12:46;97750.75;;;1.39;60.34
65534;BME280;53640;55.838;37.184;2023-04-01T00:15:13;97684.94;;;0.98;60.20
65534;BME280;53640;55.838;37.184;2023-04-01T00:17:42;97686.41;;;1.00;60.22
65534;BME280;53640;55.838;37.184;2023-04-01T00:20:10;97720.94;;;1.22;60.36
65534;BME280;53640;55.838;37.184;2023-04-01T00:22:36;97726.88;;;1.24;60.18
65534;BME280;53640;55.838;37.184;2023-04-01T00:25:04;97616.53;;;0.57;60.37
65534;BME280;53640;55.838;37.184;2023-04-01T00:27:31;97646.75;;;0.84;59.89
65534;BME280;53640;55.838;37.184;2023-04-01T00:29:57;97725.28;;;1.29;60.25
65534;BME280;53640;55.838;37.184;2023-04-01T00:32:24;97731.22;;;1.31;60.34
65534;BME280;53640;55.838;37.184;2023-04-01T00:34:52;97703.47;;;1.13;60.14
65534;BME280;53640;55.838;37.184;2023-04-01T00:37:19;97718.91;;;1.24;60.34
65534;BME280;53640;55.838;37.184;2023-04-01T00:39:47;97648.19;;;0.80;60.29
65534;BME280;53640;55.838;37.184;2023-04-01T00:42:14;97709.66;;;1.13;60.61
65534;BME280;53640;55.838;37.184;2023-04-01T00:44:42;97682.91;;;1.00;60.29
65534;BME280;53640;55.838;37.184;2023-04-01T00:47:10;97673.03;;;0.94;60.66
65534;BME280;53640;55.838;37.184;2023-04-01T00:49:40;97716.00;;;1.19;60.31
65534;BME280;53640;55.838;37.184;2023-04-01T00:52:11;97704.09;;;1.15;60.44
65534;BME280;53640;55.838;37.184;2023-04-01T00:54:41;97671.16;;;0.88;60.73
65534;BME280;53640;55.838;37.184;2023-04-01T00:57:13;97721.78;;;1.22;60.94
65534;BME280;53640;55.838;37.184;2023-04-01T00:59:44;97734.31;;;1.28;60.79
65534;BME280;53640;55.838;37.184;2023-04-01T01:02:12;97708.63;;;1.14;60.65
65534;BME280;53640;55.838;37.184;2023-04-01T01:04:39;97692.94;;;0.98;60.60
65534;BME280;53640;55.838;37.184;2023-04-01T01:12:43;97725.47;;;1.21;60.40
65534;BME280;53640;55.838;37.184;2023-04-01T01:18:09;97708.38;;;1.09;60.85
65534;BME280;53640;55.838;37.184;2023-04-01T01:32:24;97731.34;;;1.17;60.77
65534;BME280;53640;55.838;37.184;2023-04-01T01:37:38;97700.63;;;0.86;60.86
65534;BME280;53640;55.838;37.184;2023-04-01T01:40:09;97735.22;;;1.07;60.95
65534;BME280;53640;55.838;37.184;2023-04-01T01:42:44;97681.88;;;0.66;60.87
65534;BME280;53640;55.838;37.184;2023-04-01T01:45:14;97713.34;;;0.84;61.20
65534;BME280;53640;55.838;37.184;2023-04-01T01:47:46;97684.13;;;0.63;60.92
65534;BME280;53640;55.838;37.184;2023-04-01T01:50:15;97745.63;;;0.96;61.32
65534;BME280;53640;55.838;37.184;2023-04-01T01:52:43;97740.28;;;0.96;61.12
65534;BME280;53640;55.838;37.184;2023-04-01T01:55:39;97700.75;;;0.71;61.31
65534;BME280;53640;55.838;37.184;2023-04-01T02:00:45;97718.47;;;0.85;61.56
65534;BME280;53640;55.838;37.184;2023-04-01T02:03:14;97664.00;;;0.53;61.64
65534;BME280;53640;55.838;37.184;2023-04-01T02:05:42;97681.66;;;0.61;61.28
65534;BME280;53640;55.838;37.184;2023-04-01T02:08:14;97652.94;;;0.50;61.28
65534;BME280;53640;55.838;37.184;2023-04-01T02:10:47;97659.25;;;0.49;61.48
65534;BME280;53640;55.838;37.184;2023-04-01T02:13:28;97707.19;;;0.83;61.60
65534;BME280;53640;55.838;37.184;2023-04-01T02:16:00;97685.75;;;0.64;61.12
65534;BME280;53640;55.838;37.184;2023-04-01T02:18:28;97680.25;;;0.65;61.60
65534;BME280;53640;55.838;37.184;2023-04-01T02:20:58;97701.41;;;0.73;61.64
65534;BME280;53640;55.838;37.184;2023-04-01T02:23:27;97732.50;;;0.94;61.57
65534;BME280;53640;55.838;37.184;2023-04-01T02:25:54;97723.34;;;0.82;61.47
65534;BME280;53640;55.838;37.184;2023-04-01T02:28:23;97745.84;;;1.01;61.37
65534;BME280;53640;55.838;37.184;2023-04-01T02:30:51;97711.28;;;0.79;61.40
65534;BME280;53640;55.838;37.184;2023-04-01T02:33:19;97741.09;;;0.96;61.17
65534;BME280;53640;55.838;37.184;2023-04-01T02:35:46;97747.50;;;1.02;61.66
65534;BME280;53640;55.838;37.184;2023-04-01T02:38:13;97695.44;;;0.71;61.50
65534;BME280;53640;55.838;37.184;2023-04-01T02:40:47;97716.41;;;0.81;61.84
65534;BME280;53640;55.838;37.184;2023-04-01T02:43:14;97736.59;;;0.97;61.61
65534;BME280;53640;55.838;37.184;2023-04-01T02:45:41;97736.16;;;0.93;61.56
65534;BME280;53640;55.838;37.184;2023-04-01T02:48:07;97736.97;;;0.94;61.46
65534;BME280;53640;55.838;37.184;2023-04-01T02:50:36;97655.16;;;0.46;61.54
65534;BME280;53640;55.838;37.184;2023-04-01T02:53:02;97730.75;;;0.87;61.27
65534;BME280;53640;55.838;37.184;2023-04-01T02:55:31;97758.78;;;1.04;61.42
65534;BME280;53640;55.838;37.184;2023-04-01T02:57:58;97765.34;;;1.08;61.02
65534;BME280;53640;55.838;37.184;2023-04-01T03:00:24;97755.88;;;0.99;61.49
65534;BME280;53640;55.838;37.184;2023-04-01T03:02:51;97714.06;;;0.71;61.40
65534;BME280;53640;55.838;37.184;2023-04-01T03:05:19;97730.31;;;0.76;61.29
65534;BME280;53640;55.838;37.184;2023-04-01T03:07:48;97769.19;;;0.99;61.57
65534;BME280;53640;55.838;37.184;2023-04-01T03:10:15;97762.03;;;0.99;61.36
65534;BME280;53640;55.838;37.184;2023-04-01T03:12:41;97739.38;;;0.89;61.26
65534;BME280;53640;55.838;37.184;2023-04-01T03:15:10;97716.94;;;0.70;61.54
65534;BME280;53640;55.838;37.184;2023-04-01T03:17:40;97765.75;;;1.05;61.26
65534;BME280;53640;55.838;37.184;2023-04-01T03:20:08;97750.13;;;0.95;61.39
65534;BME280;53640;55.838;37.184;2023-04-01T03:22:36;97778.28;;;1.11;61.37
65534;BME280;53640;55.838;37.184;2023-04-01T03:25:05;97777.25;;;1.12;61.39
65534;BME280;53640;55.838;37.184;2023-04-01T03:27:32;97753.81;;;1.01;61.23
65534;BME280;53640;55.838;37.184;2023-04-01T03:29:58;97757.75;;;1.05;61.63
65534;BME280;53640;55.838;37.184;2023-04-01T03:32:26;97748.47;;;0.94;61.66
65534;BME280;53640;55.838;37.184;2023-04-01T03:34:53;97773.59;;;1.13;61.52
65534;BME280;53640;55.838;37.184;2023-04-01T03:37:19;97728.31;;;0.85;61.52
65534;BME280;53640;55.838;37.184;2023-04-01T03:39:46;97694.56;;;0.64;61.56
65534;BME280;53640;55.838;37.184;2023-04-01T03:42:12;97743.75;;;0.96;61.65
65534;BME280;53640;55.838;37.184;2023-04-01T03:44:38;97784.47;;;1.18;61.38
65534;BME280;53640;55.838;37.184;2023-04-01T03:47:05;97708.75;;;0.71;61.62
65534;BME280;53640;55.838;37.184;2023-04-01T03:49:32;97758.97;;;1.02;61.32
65534;BME280;53640;55.838;37.184;2023-04-01T03:51:59;97761.00;;;1.00;61.56
65534;BME280;53640;55.838;37.184;2023-04-01T03:54:26;97794.38;;;1.24;61.59
65534;BME280;53640;55.838;37.184;2023-04-01T03:56:53;97758.34;;;1.00;61.27
65534;BME280;53640;55.838;37.184;2023-04-01T03:59:22;97719.59;;;0.70;61.06
65534;BME280;53640;55.838;37.184;2023-04-01T04:01:49;97694.50;;;0.51;61.35
65534;BME280;53640;55.838;37.184;2023-04-01T04:04:15;97801.28;;;1.19;61.29
65534;BME280;53640;55.838;37.184;2023-04-01T04:06:44;97761.59;;;0.96;61.42
65534;BME280;53640;55.838;37.184;2023-04-01T04:09:12;97750.19;;;0.80;61.04
65534;BME280;53640;55.838;37.184;2023-04-01T04:11:38;97804.16;;;1.17;61.21
65534;BME280;53640;55.838;37.184;2023-04-01T04:14:05;97792.63;;;1.10;61.01
65534;BME280;53640;55.838;37.184;2023-04-01T04:16:31;97808.84;;;1.15;61.15
65534;BME280;53640;55.838;37.184;2023-04-01T04:19:01;97787.41;;;0.95;60.88
65534;BME280;53640;55.838;37.184;2023-04-01T04:21:27;97797.25;;;0.95;61.39
65534;BME280;53640;55.838;37.184;2023-04-01T04:23:54;97833.47;;;1.17;61.16
65534;BME280;53640;55.838;37.184;2023-04-01T04:26:21;97829.34;;;1.15;61.31
65534;BME280;53640;55.838;37.184;2023-04-01T04:29:00;97811.66;;;1.07;61.73
65534;BME280;53640;55.838;37.184;2023-04-01T04:31:27;97827.94;;;1.19;61.24
65534;BME280;53640;55.838;37.184;2023-04-01T04:33:56;97826.09;;;1.19;61.33
65534;BME280;53640;55.838;37.184;2023-04-01T04:36:23;97828.59;;;1.21;61.49
65534;BME280;53640;55.838;37.184;2023-04-01T04:38:51;97813.13;;;1.10;61.70
65534;BME280;53640;55.838;37.184;2023-04-01T04:41:18;97840.09;;;1.28;61.57
65534;BME280;53640;55.838;37.184;2023-04-01T04:43:59;97746.19;;;0.63;61.39
65534;BME280;53640;55.838;37.184;2023-04-01T04:46:58;97756.88;;;0.70;61.43
65534;BME280;53640;55.838;37.184;2023-04-01T04:49:54;97726.59;;;0.43;61.81
65534;BME280;53640;55.838;37.184;2023-04-01T04:52:21;97790.38;;;0.85;61.82
65534;BME280;53640;55.838;37.184;2023-04-01T04:54:47;97770.25;;;0.76;61.83
65534;BME280;53640;55.838;37.184;2023-04-01T04:57:14;97834.47;;;1.16;61.67
65534;BME280;53640;55.838;37.184;2023-04-01T04:59:48;97806.72;;;1.04;61.41
65534;BME280;53640;55.838;37.184;2023-04-01T05:02:25;97811.66;;;1.07;61.79
65534;BME280;53640;55.838;37.184;2023-04-01T05:04:51;97845.38;;;1.21;61.38
65534;BME280;53640;55.838;37.184;2023-04-01T05:07:18;97828.53;;;1.14;61.56
65534;BME280;53640;55.838;37.184;2023-04-01T05:09:44;97833.44;;;1.11;61.56
65534;BME280;53640;55.838;37.184;2023-04-01T05:12:12;97840.22;;;1.13;61.72
65534;BME280;53640;55.838;37.184;2023-04-01T05:14:55;97822.94;;;1.09;61.96
65534;BME280;53640;55.838;37.184;2023-04-01T05:17:22;97862.63;;;1.25;61.66
65534;BME280;53640;55.838;37.184;2023-04-01T05:19:48;97879.09;;;1.36;61.86
65534;BME280;53640;55.838;37.184;2023-04-01T05:22:15;97829.94;;;1.10;61.66
65534;BME280;53640;55.838;37.184;2023-04-01T05:24:42;97831.59;;;1.11;62.03
65534;BME280;53640;55.838;37.184;2023-04-01T05:27:09;97865.75;;;1.36;61.83
65534;BME280;53640;55.838;37.184;2023-04-01T05:29:38;97838.38;;;1.14;61.91
65534;BME280;53640;55.838;37.184;2023-04-01T05:32:07;97839.81;;;1.16;61.64
65534;BME280;53640;55.838;37.184;2023-04-01T05:34:36;97879.34;;;1.41;61.76
65534;BME280;53640;55.838;37.184;2023-04-01T05:37:02;97811.84;;;1.05;61.96
65534;BME280;53640;55.838;37.184;2023-04-01T05:39:28;97876.53;;;1.49;61.78
65534;BME280;53640;55.838;37.184;2023-04-01T05:41:56;97881.69;;;1.57;61.86
65534;BME280;53640;55.838;37.184;2023-04-01T05:44:22;97883.97;;;1.60;61.66
65534;BME280;53640;55.838;37.184;2023-04-01T05:47:09;97842.41;;;1.38;61.55
65534;BME280;53640;55.838;37.184;2023-04-01T05:49:35;97884.19;;;1.65;61.75
65534;BME280;53640;55.838;37.184;2023-04-01T05:52:03;97880.75;;;1.71;61.60
65534;BME280;53640;55.838;37.184;2023-04-01T05:54:31;97843.06;;;1.46;61.24
65534;BME280;53640;55.838;37.184;2023-04-01T05:56:57;97884.66;;;1.75;61.55
65534;BME280;53640;55.838;37.184;2023-04-01T05:59:24;97868.81;;;1.67;61.37
65534;BME280;53640;55.838;37.184;2023-04-01T06:01:51;97887.16;;;1.84;61.58
65534;BME280;53640;55.838;37.184;2023-04-01T06:04:19;97866.97;;;1.68;61.85
65534;BME280;53640;55.838;37.184;2023-04-01T06:06:46;97885.53;;;1.82;61.79
65534;BME280;53640;55.838;37.184;2023-04-01T06:09:23;97871.75;;;1.79;61.97
65534;BME280;53640;55.838;37.184;2023-04-01T06:30:53;97913.63;;;2.33;61.87
65534;BME280;53640;55.838;37.184;2023-04-01T06:45:31;97841.28;;;2.08;61.67
65534;BME280;53640;55.838;37.184;2023-04-01T06:48:38;97868.66;;;2.30;61.57
65534;BME280;53640;55.838;37.184;2023-04-01T06:58:10;97927.31;;;2.78;61.29
65534;BME280;53640;55.838;37.184;2023-04-01T07:00:42;97921.78;;;2.79;61.06
65534;BME280;53640;55.838;37.184;2023-04-01T07:03:33;97929.38;;;2.89;61.16
65534;BME280;53640;55.838;37.184;2023-04-01T07:06:13;97898.50;;;2.67;61.06
65534;BME280;53640;55.838;37.184;2023-04-01T07:08:51;97879.41;;;2.63;60.95
65534;BME280;53640;55.838;37.184;2023-04-01T07:11:31;97880.88;;;2.72;60.62
65534;BME280;53640;55.838;37.184;2023-04-01T07:14:35;97929.41;;;3.09;60.71
65534;BME280;53640;55.838;37.184;2023-04-01T07:17:12;97935.81;;;3.28;61.15
65534;BME280;53640;55.838;37.184;2023-04-01T07:19:50;97902.25;;;3.19;60.36
65534;BME280;53640;55.838;37.184;2023-04-01T07:22:29;97941.78;;;3.50;60.04
65534;BME280;53640;55.838;37.184;2023-04-01T07:25:44;97945.47;;;3.62;58.75
65534;BME280;53640;55.838;37.184;2023-04-01T07:28:31;97941.75;;;3.77;58.93
65534;BME280;53640;55.838;37.184;2023-04-01T07:36:44;97934.06;;;4.07;58.27
65534;BME280;53640;55.838;37.184;2023-04-01T07:45:23;97958.91;;;4.27;57.43
65534;BME280;53640;55.838;37.184;2023-04-01T07:48:13;97958.66;;;4.35;57.37
65534;BME280;53640;55.838;37.184;2023-04-01T07:53:51;97973.00;;;4.54;57.81
65534;BME280;53640;55.838;37.184;2023-04-01T07:56:37;97963.72;;;4.63;57.74
65534;BME280;53640;55.838;37.184;2023-04-01T08:05:57;97969.16;;;5.13;55.25
65534;BME280;53640;55.838;37.184;2023-04-01T08:09:28;97883.44;;;4.75;54.10
65534;BME280;53640;55.838;37.184;2023-04-01T08:11:45;97881.81;;;4.99;53.19
65534;BME280;53640;55.838;37.184;2023-04-01T08:20:44;97895.56;;;5.78;52.31
65534;BME280;53640;55.838;37.184;2023-04-01T08:23:22;97960.94;;;6.45;52.43
65534;BME280;53640;55.838;37.184;2023-04-01T08:26:04;97969.41;;;6.60;48.87
65534;BME280;53640;55.838;37.184;2023-04-01T08:28:42;97971.91;;;6.92;49.25
65534;BME280;53640;55.838;37.184;2023-04-01T08:34:14;97952.31;;;7.57;47.25
65534;BME280;53640;55.838;37.184;2023-04-01T08:36:46;97923.97;;;7.66;48.16
65534;BME280;53640;55.838;37.184;2023-04-01T08:39:34;97942.81;;;8.01;49.13
65534;BME280;53640;55.838;37.184;2023-04-01T08:59:47;97979.06;;;10.33;42.54
65534;BME280;53640;55.838;37.184;2023-04-01T09:08:31;97979.22;;;11.73;42.77
65534;BME280;53640;55.838;37.184;2023-04-01T09:11:17;97979.13;;;12.37;44.22
65534;BME280;53640;55.838;37.184;2023-04-01T09:14:38;97980.69;;;12.76;40.55
65534;BME280;53640;55.838;37.184;2023-04-01T09:23:38;97986.56;;;13.61;37.87
65534;BME280;53640;55.838;37.184;2023-04-01T09:29:35;97956.25;;;14.44;40.09
65534;BME280;53640;55.838;37.184;2023-04-01T09:35:42;98000.13;;;14.37;29.89
65534;BME280;53640;55.838;37.184;2023-04-01T09:38:22;97997.59;;;14.61;33.81
65534;BME280;53640;55.838;37.184;2023-04-01T09:40:56;98006.78;;;14.91;33.11
65534;BME280;53640;55.838;37.184;2023-04-01T09:43:57;98005.81;;;15.21;30.41
65534;BME280;53640;55.838;37.184;2023-04-01T10:00:02;98006.69;;;17.20;26.32
65534;BME280;53640;55.838;37.184;2023-04-01T10:08:24;98015.19;;;18.08;29.50
65534;BME280;53640;55.838;37.184;2023-04-01T10:20:36;98010.25;;;16.97;26.00
65534;BME280;53640;55.838;37.184;2023-04-01T10:23:25;98022.91;;;16.40;27.46
65534;BME280;53640;55.838;37.184;2023-04-01T10:28:37;98016.38;;;15.33;26.26
65534;BME280;53640;55.838;37.184;2023-04-01T10:51:41;98027.78;;;16.48;25.87
65534;BME280;53640;55.838;37.184;2023-04-01T11:48:24;98059.44;;;11.42;31.00
65534;BME280;53640;55.838;37.184;2023-04-01T11:56:38;98054.81;;;10.71;31.06
65534;BME280;53640;55.838;37.184;2023-04-01T12:05:29;98064.63;;;10.22;32.47
65534;BME280;53640;55.838;37.184;2023-04-01T12:13:31;98064.34;;;10.01;33.30
65534;BME280;53640;55.838;37.184;2023-04-01T12:24:06;98062.09;;;9.81;34.05
65534;BME280;53640;55.838;37.184;2023-04-01T12:26:52;98070.63;;;9.73;34.33
65534;BME280;53640;55.838;37.184;2023-04-01T12:35:24;98031.09;;;9.10;34.29
65534;BME280;53640;55.838;37.184;2023-04-01T12:51:48;98071.63;;;8.98;35.43
65534;BME280;53640;55.838;37.184;2023-04-01T13:03:17;98088.13;;;8.73;35.76
65534;BME280;53640;55.838;37.184;2023-04-01T13:08:36;98101.03;;;8.59;35.64
65534;BME280;53640;55.838;37.184;2023-04-01T13:11:20;98109.00;;;8.54;35.86
65534;BME280;53640;55.838;37.184;2023-04-01T13:16:35;98111.38;;;8.39;35.68
65534;BME280;53640;55.838;37.184;2023-04-01T13:22:01;98087.84;;;8.04;35.25
65534;BME280;53640;55.838;37.184;2023-04-01T13:24:35;98086.47;;;8.13;35.54
65534;BME280;53640;55.838;37.184;2023-04-01T13:33:07;98080.00;;;7.91;35.83
65534;BME280;53640;55.838;37.184;2023-04-01T13:38:41;98106.25;;;8.07;36.18
65534;BME280;53640;55.838;37.184;2023-04-01T13:52:05;98142.41;;;7.88;35.87
65534;BME280;53640;55.838;37.184;2023-04-01T13:59:46;98145.44;;;7.80;35.54
65534;BME280;53640;55.838;37.184;2023-04-01T14:10:20;98044.09;;;6.95;35.86
65534;BME280;53640;55.838;37.184;2023-04-01T14:13:31;98107.50;;;7.21;36.43
65534;BME280;53640;55.838;37.184;2023-04-01T14:26:43;98165.38;;;7.30;38.57
65534;BME280;53640;55.838;37.184;2023-04-01T14:36:28;98048.78;;;6.26;39.08
65534;BME280;53640;55.838;37.184;2023-04-01T14:51:47;98118.09;;;6.42;40.95
65534;BME280;53640;55.838;37.184;2023-04-01T14:59:34;98211.13;;;6.94;41.76
65534;BME280;53640;55.838;37.184;2023-04-01T15:16:27;98224.28;;;6.77;45.89
65534;BME280;53640;55.838;37.184;2023-04-01T15:31:58;98181.06;;;6.03;48.26
65534;BME280;53640;55.838;37.184;2023-04-01T15:43:47;98195.69;;;5.76;50.63
65534;BME280;53640;55.838;37.184;2023-04-01T15:48:41;98243.66;;;6.04;50.52
65534;BME280;53640;55.838;37.184;2023-04-01T16:00:23;98163.28;;;5.32;51.35
65534;BME280;53640;55.838;37.184;2023-04-01T16:05:34;98285.19;;;6.01;51.37
65534;BME280;53640;55.838;37.184;2023-04-01T16:08:34;98165.78;;;5.20;51.71
65534;BME280;53640;55.838;37.184;2023-04-01T16:14:24;98185.97;;;5.36;52.55
65534;BME280;53640;55.838;37.184;2023-04-01T16:20:18;98229.28;;;5.47;53.44
65534;BME280;53640;55.838;37.184;2023-04-01T16:22:56;98299.97;;;5.79;54.37
65534;BME280;53640;55.838;37.184;2023-04-01T16:25:44;98296.88;;;5.75;54.14
65534;BME280;53640;55.838;37.184;2023-04-01T16:28:28;98266.88;;;5.40;54.89
65534;BME280;53640;55.838;37.184;2023-04-01T16:31:09;98229.34;;;5.20;54.95
65534;BME280;53640;55.838;37.184;2023-04-01T16:33:57;98305.19;;;5.67;54.61
65534;BME280;53640;55.838;37.184;2023-04-01T16:39:28;98307.03;;;5.66;55.06
65534;BME280;53640;55.838;37.184;2023-04-01T16:45:30;98284.19;;;5.44;55.43
65534;BME280;53640;55.838;37.184;2023-04-01T16:48:14;98183.03;;;4.80;55.81
65534;BME280;53640;55.838;37.184;2023-04-01T16:51:02;98276.19;;;5.31;55.67
65534;BME280;53640;55.838;37.184;2023-04-01T16:56:28;98281.16;;;5.27;55.90
65534;BME280;53640;55.838;37.184;2023-04-01T16:59:07;98295.56;;;5.39;56.43
65534;BME280;53640;55.838;37.184;2023-04-01T17:02:10;98271.22;;;5.21;56.46
65534;BME280;53640;55.838;37.184;2023-04-01T17:10:03;98314.94;;;5.48;56.03
65534;BME280;53640;55.838;37.184;2023-04-01T17:12:58;98321.13;;;5.55;55.86
65534;BME280;53640;55.838;37.184;2023-04-01T17:21:54;98334.78;;;5.47;56.19
65534;BME280;53640;55.838;37.184;2023-04-01T17:23:52;98303.63;;;5.26;56.28
65534;BME280;53640;55.838;37.184;2023-04-01T17:34:35;98350.88;;;5.40;57.20
65534;BME280;53640;55.838;37.184;2023-04-01T17:39:49;98345.50;;;5.34;57.32
65534;BME280;53640;55.838;37.184;2023-04-01T17:45:55;98289.00;;;4.95;57.10
65534;BME280;53640;55.838;37.184;2023-04-01T17:51:33;98325.28;;;5.11;57.79
65534;BME280;53640;55.838;37.184;2023-04-01T17:56:32;98348.66;;;5.31;57.21
65534;BME280;53640;55.838;37.184;2023-04-01T17:59:21;98342.44;;;5.24;57.33
65534;BME280;53640;55.838;37.184;2023-04-01T18:19:26;98355.84;;;5.04;58.42
65534;BME280;53640;55.838;37.184;2023-04-01T18:22:45;98375.47;;;5.04;58.49
65534;BME280;53640;55.838;37.184;2023-04-01T18:31:05;98370.47;;;4.88;59.08
65534;BME280;53640;55.838;37.184;2023-04-01T18:36:26;98384.72;;;4.95;58.80
65534;BME280;53640;55.838;37.184;2023-04-01T18:47:07;98387.38;;;4.88;58.93
65534;BME280;53640;55.838;37.184;2023-04-01T18:49:59;98390.09;;;4.95;58.77
65534;BME280;53640;55.838;37.184;2023-04-01T18:52:43;98402.28;;;4.97;58.67
65534;BME280;53640;55.838;37.184;2023-04-01T18:55:29;98407.63;;;4.91;59.15
65534;BME280;53640;55.838;37.184;2023-04-01T18:58:16;98359.31;;;4.64;58.94
65534;BME280;53640;55.838;37.184;2023-04-01T19:03:34;98414.41;;;4.87;59.81
65534;BME280;53640;55.838;37.184;2023-04-01T19:06:17;98383.06;;;4.67;59.49
65534;BME280;53640;55.838;37.184;2023-04-01T19:08:44;98409.88;;;4.87;59.46
65534;BME280;53640;55.838;37.184;2023-04-01T19:11:43;98399.94;;;4.68;59.70
65534;BME280;53640;55.838;37.184;2023-04-01T19:20:54;98388.00;;;4.64;59.46
65534;BME280;53640;55.838;37.184;2023-04-01T19:25:49;98414.19;;;4.88;59.34
65534;BME280;53640;55.838;37.184;2023-04-01T19:34:22;98415.69;;;4.97;58.97
65534;BME280;53640;55.838;37.184;2023-04-01T19:37:00;98368.22;;;4.71;59.31
65534;BME280;53640;55.838;37.184;2023-04-01T19:39:48;98400.78;;;4.88;59.01
65534;BME280;53640;55.838;37.184;2023-04-01T19:42:35;98379.78;;;4.79;59.06
65534;BME280;53640;55.838;37.184;2023-04-01T19:53:31;98386.13;;;4.78;58.70
65534;BME280;53640;55.838;37.184;2023-04-01T19:56:15;98420.22;;;4.97;58.80
65534;BME280;53640;55.838;37.184;2023-04-01T19:59:16;98443.13;;;5.13;58.80
65534;BME280;53640;55.838;37.184;2023-04-01T20:01:53;98383.06;;;4.81;58.64
65534;BME280;53640;55.838;37.184;2023-04-01T20:05:00;98400.63;;;4.90;58.98
65534;BME280;53640;55.838;37.184;2023-04-01T20:07:38;98424.34;;;5.06;59.46
65534;BME280;53640;55.838;37.184;2023-04-01T20:10:17;98435.25;;;5.11;58.89
65534;BME280;53640;55.838;37.184;2023-04-01T20:17:48;98398.94;;;4.95;59.08
65534;BME280;53640;55.838;37.184;2023-04-01T20:20:21;98434.47;;;5.17;58.63
65534;BME280;53640;55.838;37.184;2023-04-01T20:25:38;98364.91;;;4.83;58.79
65534;BME280;53640;55.838;37.184;2023-04-01T20:41:45;98431.13;;;5.15;59.04
65534;BME280;53640;55.838;37.184;2023-04-01T20:44:41;98426.81;;;5.14;58.72
65534;BME280;53640;55.838;37.184;2023-04-01T20:47:40;98427.22;;;5.11;59.26
65534;BME280;53640;55.838;37.184;2023-04-01T21:07:45;98418.09;;;4.72;59.60
65534;BME280;53640;55.838;37.184;2023-04-01T21:13:36;98340.91;;;4.21;59.13
65534;BME280;53640;55.838;37.184;2023-04-01T21:16:10;98468.91;;;5.07;59.25
65534;BME280;53640;55.838;37.184;2023-04-01T21:24:48;98467.03;;;5.08;59.38
65534;BME280;53640;55.838;37.184;2023-04-01T21:30:38;98446.44;;;5.08;59.28
65534;BME280;53640;55.838;37.184;2023-04-01T21:48:29;98400.41;;;4.78;59.41
65534;BME280;53640;55.838;37.184;2023-04-01T22:04:45;98461.47;;;5.22;59.34
65534;BME280;53640;55.838;37.184;2023-04-01T22:07:27;98469.34;;;5.24;59.25
65534;BME280;53640;55.838;37.184;2023-04-01T22:13:38;98478.03;;;5.26;59.25
65534;BME280;53640;55.838;37.184;2023-04-01T22:18:21;98438.16;;;5.03;58.88
65534;BME280;53640;55.838;37.184;2023-04-01T22:21:24;98478.44;;;5.30;59.06
65534;BME280;53640;55.838;37.184;2023-04-01T22:24:16;98469.34;;;5.24;59.11
65534;BME280;53640;55.838;37.184;2023-04-01T22:27:06;98450.34;;;5.12;59.43
65534;BME280;53640;55.838;37.184;2023-04-01T22:30:06;98478.66;;;5.28;59.52
65534;BME280;53640;55.838;37.184;2023-04-01T22:32:52;98479.44;;;5.15;60.03
65534;BME280;53640;55.838;37.184;2023-04-01T22:35:24;98494.13;;;5.19;59.59
65534;BME280;53640;55.838;37.184;2023-04-01T22:38:20;98471.22;;;5.24;59.65
65534;BME280;53640;55.838;37.184;2023-04-01T22:43:37;98448.69;;;4.98;60.45
65534;BME280;53640;55.838;37.184;2023-04-01T22:48:57;98493.47;;;5.11;61.18
65534;BME280;53640;55.838;37.184;2023-04-01T22:51:50;98489.16;;;5.16;60.27
65534;BME280;53640;55.838;37.184;2023-04-01T22:56:55;98478.41;;;5.16;60.59
65534;BME280;53640;55.838;37.184;2023-04-01T22:59:35;98448.03;;;4.96;60.89
65534;BME280;53640;55.838;37.184;2023-04-01T23:02:09;98478.00;;;5.13;60.82
65534;BME280;53640;55.838;37.184;2023-04-01T23:04:40;98439.59;;;4.86;60.73
65534;BME280;53640;55.838;37.184;2023-04-01T23:07:35;98485.22;;;5.12;61.54
65534;BME280;53640;55.838;37.184;2023-04-01T23:10:28;98474.69;;;5.04;61.73
65534;BME280;53640;55.838;37.184;2023-04-01T23:12:59;98487.91;;;5.12;61.41
65534;BME280;53640;55.838;37.184;2023-04-01T23:15:27;98482.50;;;4.99;61.47
65534;BME280;53640;55.838;37.184;2023-04-01T23:21:10;98487.69;;;5.01;62.59
65534;BME280;53640;55.838;37.184;2023-04-01T23:23:56;98501.50;;;5.04;62.08
65534;BME280;53640;55.838;37.184;2023-04-01T23:26:40;98509.97;;;5.01;62.56
65534;BME280;53640;55.838;37.184;2023-04-01T23:29:14;98452.56;;;4.76;62.58
65534;BME280;53640;55.838;37.184;2023-04-01T23:31:44;98465.56;;;4.85;62.61
65534;BME280;53640;55.838;37.184;2023-04-01T23:37:08;98487.25;;;4.97;62.72
65534;BME280;53640;55.838;37.184;2023-04-01T23:39:40;98451.34;;;4.78;62.78
65534;BME280;53640;55.838;37.184;2023-04-01T23:42:14;98446.56;;;4.67;63.35
65534;BME280;53640;55.838;37.184;2023-04-01T23:44:42;98504.78;;;5.00;63.02
65534;BME280;53640;55.838;37.184;2023-04-01T23:47:15;98498.38;;;4.94;63.87
65534;BME280;53640;55.838;37.184;2023-04-01T23:49:49;98484.13;;;4.87;63.69
65534;BME280;53640;55.838;37.184;2023-04-01T23:52:38;98446.97;;;4.64;63.76
65534;BME280;53640;55.838;37.184;2023-04-01T23:57:36;98450.47;;;4.64;64.08
